Hood River, OR

4:31 AM PDT on October 25, 2014 (GMT -0700)
Rockford | Change Station
CLOSE
Current Station
Personal Weather Station
Location: Hood River, OR
Elevation: 801 ft
Nearby Weather Stations

Elev 801 ft 45.68 °N, 121.57 °W | Updated 14 minutes ago

Overcast
Overcast
49.5 °F
Feels Like 50 °F
N
0.0
Wind Variable Wind from East

Today
High -- | Low -- °F
--% Chance of Precip.
Yesterday
High -- | Low -- °F
Precip. -- in
7:36 AM 6:03 PM
Waxing Crescent, 3% visible
Pressure 29.74 in
Visibility 6.0 miles
Clouds Overcast 3200 ft
Windchill 50 °F
Dew Point 49 °F
Humidity 99%
Rainfall 0.00 in
Snow Depth 0 in
UV 0 out of 12
Pollen .40 out of 12
Air Quality Not available.
Flu Activity Sporadic
METAR KDLS 251053Z AUTO 00000KT 6SM BR OVC032 11/10 A2974 RMK AO2 SLP070 T01110100

More Conditions Fewer Conditions

Pressure 29.74 in
Visibility 6.0 miles
Clouds Overcast 3200 ft
Windchill 50 °F
Dew Point 49 °F
Humidity 99%
Rainfall 0.00 in
Snow Depth 0 in
UV 0 out of 12
Pollen .40 out of 12
Air Quality Not available.
Flu Activity Sporadic
METAR KDLS 251053Z AUTO 00000KT 6SM BR OVC032 11/10 A2974 RMK AO2 SLP070 T01110100

More Conditions Fewer Conditions

10-Day Weather Forecast

Almanac

Astronomy

Oct. 25, 2014 Rise Set
Actual Time 7:36 AM PDT 6:03 PM PDT
Civil Twilight 7:05 AM PDT 6:33 PM PDT
Nautical Twilight 6:31 AM PDT 7:08 PM PDT
Astronomical Twilight 5:56 AM PDT 7:42 PM PDT
Moon 9:24 AM PDT 7:25 PM PDT
Length of Visible Light 11h 27m
Length of Day
10h 26m
Tomorrow will be 2m 59s shorter.
Waxing Crescent, 3% of the Moon is Illuminated
Today
Waxing Crescent
Oct 30
First Quarter
Nov 6
Full
Nov 14
Last Quarter
Nov 22
New

Today's Extremes

State Highs State Lows

Community

WunderPhotos

Upload Photos

1,764,810 photos uploaded!

Nearby

Snow Depth

Station Depth Elevation
Greenpoint 0 in 3200 ft
North Fork 0 in 3120 ft
Mud Ridge 0 in 3800 ft
Clear Lake 1 in 3500 ft
Clackamas Lake 0 in 3400 ft

Earthquake Activity

City Distance Mag. Time & Date
No recent earthquake activity has been reported nearby.
Minimum magnitude displayed is 2.5.

Coastal Water Temperatures

Place Temperature
No Stations Reporting

Nearby Weather Stations